sensor_id;sensor_type;location;lat;lon;timestamp;pressure;altitude;pressure_sealevel;temperature;humidity
6615;BME280;3343;42.896;23.912;2022-09-27T00:02:13;95524.56;;;23.82;71.89
6615;BME280;3343;42.896;23.912;2022-09-27T00:04:40;95542.28;;;24.57;67.91
6615;BME280;3343;42.896;23.912;2022-09-27T00:07:07;95530.50;;;23.47;71.46
6615;BME280;3343;42.896;23.912;2022-09-27T00:09:35;95539.22;;;23.58;73.27
6615;BME280;3343;42.896;23.912;2022-09-27T00:12:02;95521.84;;;23.69;71.88
6615;BME280;3343;42.896;23.912;2022-09-27T00:14:29;95538.78;;;24.70;67.86
6615;BME280;3343;42.896;23.912;2022-09-27T00:16:56;95552.69;;;24.86;67.24
6615;BME280;3343;42.896;23.912;2022-09-27T00:19:24;95546.91;;;25.43;64.61
6615;BME280;3343;42.896;23.912;2022-09-27T00:21:51;95557.78;;;23.35;72.99
6615;BME280;3343;42.896;23.912;2022-09-27T00:24:19;95552.47;;;23.68;73.78
6615;BME280;3343;42.896;23.912;2022-09-27T00:26:47;95542.97;;;24.49;69.20
6615;BME280;3343;42.896;23.912;2022-09-27T00:29:17;95522.84;;;25.10;65.50
6615;BME280;3343;42.896;23.912;2022-09-27T00:31:44;95541.28;;;23.79;72.00
6615;BME280;3343;42.896;23.912;2022-09-27T00:34:17;95554.69;;;23.79;72.23
6615;BME280;3343;42.896;23.912;2022-09-27T00:36:46;95543.19;;;24.06;70.06
6615;BME280;3343;42.896;23.912;2022-09-27T00:39:14;95536.59;;;24.31;69.23
6615;BME280;3343;42.896;23.912;2022-09-27T00:41:41;95549.56;;;24.29;67.64
6615;BME280;3343;42.896;23.912;2022-09-27T00:47:11;95551.66;;;24.46;66.40
6615;BME280;3343;42.896;23.912;2022-09-27T00:49:46;95561.78;;;24.76;65.56
6615;BME280;3343;42.896;23.912;2022-09-27T00:52:20;95554.34;;;25.23;62.55
6615;BME280;3343;42.896;23.912;2022-09-27T00:54:51;95572.16;;;24.56;66.45
6615;BME280;3343;42.896;23.912;2022-09-27T00:57:21;95572.75;;;24.53;67.88
6615;BME280;3343;42.896;23.912;2022-09-27T00:59:50;95558.41;;;24.57;68.03
6615;BME280;3343;42.896;23.912;2022-09-27T01:02:20;95552.31;;;23.78;70.93
6615;BME280;3343;42.896;23.912;2022-09-27T01:04:48;95557.66;;;24.24;69.24
6615;BME280;3343;42.896;23.912;2022-09-27T01:07:16;95556.31;;;24.54;68.14
6615;BME280;3343;42.896;23.912;2022-09-27T01:09:44;95553.34;;;24.42;67.17
6615;BME280;3343;42.896;23.912;2022-09-27T01:12:19;95551.84;;;24.63;66.38
6615;BME280;3343;42.896;23.912;2022-09-27T01:14:59;95541.84;;;24.77;65.10
6615;BME280;3343;42.896;23.912;2022-09-27T01:17:40;95542.91;;;24.22;68.60
6615;BME280;3343;42.896;23.912;2022-09-27T01:20:25;95539.81;;;24.14;69.21
6615;BME280;3343;42.896;23.912;2022-09-27T01:23:11;95531.03;;;24.55;67.19
6615;BME280;3343;42.896;23.912;2022-09-27T01:25:52;95548.25;;;24.40;68.85
6615;BME280;3343;42.896;23.912;2022-09-27T01:28:31;95529.66;;;24.11;71.07
6615;BME280;3343;42.896;23.912;2022-09-27T01:31:10;95523.31;;;24.76;69.24
6615;BME280;3343;42.896;23.912;2022-09-27T01:33:44;95518.41;;;24.92;67.85
6615;BME280;3343;42.896;23.912;2022-09-27T01:36:25;95522.91;;;24.83;67.53
6615;BME280;3343;42.896;23.912;2022-09-27T01:39:05;95523.03;;;24.64;68.35
6615;BME280;3343;42.896;23.912;2022-09-27T01:41:38;95512.31;;;23.90;70.50
6615;BME280;3343;42.896;23.912;2022-09-27T01:44:17;95507.34;;;23.51;73.55
6615;BME280;3343;42.896;23.912;2022-09-27T01:46:50;95507.72;;;23.77;72.63
6615;BME280;3343;42.896;23.912;2022-09-27T01:49:23;95508.53;;;23.91;71.63
6615;BME280;3343;42.896;23.912;2022-09-27T01:51:56;95509.25;;;24.10;71.10
6615;BME280;3343;42.896;23.912;2022-09-27T01:54:29;95502.72;;;24.58;69.54
6615;BME280;3343;42.896;23.912;2022-09-27T01:56:59;95503.69;;;24.21;70.21
6615;BME280;3343;42.896;23.912;2022-09-27T01:59:30;95505.75;;;24.29;70.04
6615;BME280;3343;42.896;23.912;2022-09-27T02:02:05;95501.00;;;23.93;72.34
6615;BME280;3343;42.896;23.912;2022-09-27T02:04:34;95496.41;;;22.72;78.84
6615;BME280;3343;42.896;23.912;2022-09-27T02:07:08;95499.66;;;23.63;75.17
6615;BME280;3343;42.896;23.912;2022-09-27T02:09:39;95497.81;;;23.07;77.23
6615;BME280;3343;42.896;23.912;2022-09-27T02:12:12;95509.28;;;23.13;77.51
6615;BME280;3343;42.896;23.912;2022-09-27T02:14:43;95507.75;;;24.04;73.27
6615;BME280;3343;42.896;23.912;2022-09-27T02:17:21;95501.69;;;24.12;72.22
6615;BME280;3343;42.896;23.912;2022-09-27T02:19:53;95498.78;;;23.81;72.32
6615;BME280;3343;42.896;23.912;2022-09-27T02:22:31;95477.91;;;24.06;71.32
6615;BME280;3343;42.896;23.912;2022-09-27T02:25:01;95486.94;;;23.17;76.33
6615;BME280;3343;42.896;23.912;2022-09-27T02:27:35;95488.03;;;23.49;75.81
6615;BME280;3343;42.896;23.912;2022-09-27T02:30:07;95487.00;;;24.51;70.68
6615;BME280;3343;42.896;23.912;2022-09-27T02:32:37;95473.13;;;24.94;67.72
6615;BME280;3343;42.896;23.912;2022-09-27T02:35:10;95471.34;;;23.98;71.28
6615;BME280;3343;42.896;23.912;2022-09-27T02:37:39;95458.53;;;22.98;77.29
6615;BME280;3343;42.896;23.912;2022-09-27T02:40:06;95460.13;;;23.31;75.81
6615;BME280;3343;42.896;23.912;2022-09-27T02:42:34;95457.97;;;23.66;74.51
6615;BME280;3343;42.896;23.912;2022-09-27T02:45:01;95463.38;;;24.21;73.08
6615;BME280;3343;42.896;23.912;2022-09-27T02:47:53;95451.75;;;24.39;70.83
6615;BME280;3343;42.896;23.912;2022-09-27T02:50:38;95451.53;;;24.85;68.86
6615;BME280;3343;42.896;23.912;2022-09-27T02:53:16;95443.56;;;23.43;75.03
6615;BME280;3343;42.896;23.912;2022-09-27T02:55:51;95440.78;;;23.80;74.62
6615;BME280;3343;42.896;23.912;2022-09-27T02:58:31;95433.41;;;24.41;71.55
6615;BME280;3343;42.896;23.912;2022-09-27T03:01:07;95422.06;;;24.80;69.38
6615;BME280;3343;42.896;23.912;2022-09-27T03:03:44;95420.63;;;24.60;70.38
6615;BME280;3343;42.896;23.912;2022-09-27T03:06:15;95431.00;;;23.71;74.52
6615;BME280;3343;42.896;23.912;2022-09-27T03:08:43;95418.34;;;24.26;71.70
6615;BME280;3343;42.896;23.912;2022-09-27T03:11:11;95422.44;;;24.51;70.21
6615;BME280;3343;42.896;23.912;2022-09-27T03:13:38;95413.50;;;23.73;74.15
6615;BME280;3343;42.896;23.912;2022-09-27T03:16:05;95413.06;;;23.52;75.61
6615;BME280;3343;42.896;23.912;2022-09-27T03:18:33;95410.91;;;23.68;75.58
6615;BME280;3343;42.896;23.912;2022-09-27T03:21:01;95412.13;;;24.31;72.88
6615;BME280;3343;42.896;23.912;2022-09-27T03:23:28;95413.31;;;23.97;73.03
6615;BME280;3343;42.896;23.912;2022-09-27T03:25:56;95406.13;;;24.48;71.86
6615;BME280;3343;42.896;23.912;2022-09-27T03:28:23;95392.41;;;24.35;70.27
6615;BME280;3343;42.896;23.912;2022-09-27T03:30:51;95395.97;;;24.44;69.65
6615;BME280;3343;42.896;23.912;2022-09-27T03:33:18;95405.78;;;24.63;69.07
6615;BME280;3343;42.896;23.912;2022-09-27T03:35:44;95395.88;;;24.36;69.89
6615;BME280;3343;42.896;23.912;2022-09-27T03:38:14;95380.13;;;24.15;70.72
6615;BME280;3343;42.896;23.912;2022-09-27T03:40:41;95367.81;;;23.00;75.65
6615;BME280;3343;42.896;23.912;2022-09-27T03:43:07;95364.88;;;22.45;79.22
6615;BME280;3343;42.896;23.912;2022-09-27T03:45:34;95350.88;;;22.85;77.23
6615;BME280;3343;42.896;23.912;2022-09-27T03:48:01;95341.19;;;23.03;76.27
6615;BME280;3343;42.896;23.912;2022-09-27T03:50:29;95345.94;;;23.80;72.63
6615;BME280;3343;42.896;23.912;2022-09-27T03:52:55;95356.34;;;24.36;70.13
6615;BME280;3343;42.896;23.912;2022-09-27T03:55:24;95351.97;;;24.40;70.38
6615;BME280;3343;42.896;23.912;2022-09-27T03:57:51;95348.47;;;23.16;76.36
6615;BME280;3343;42.896;23.912;2022-09-27T04:00:18;95344.34;;;23.05;77.69
6615;BME280;3343;42.896;23.912;2022-09-27T04:02:45;95341.28;;;23.72;73.36
6615;BME280;3343;42.896;23.912;2022-09-27T04:05:12;95337.22;;;23.61;73.57
6615;BME280;3343;42.896;23.912;2022-09-27T04:07:39;95332.94;;;23.60;72.91
6615;BME280;3343;42.896;23.912;2022-09-27T04:10:06;95322.81;;;24.06;72.34
6615;BME280;3343;42.896;23.912;2022-09-27T04:12:38;95336.13;;;24.61;69.79
6615;BME280;3343;42.896;23.912;2022-09-27T04:15:05;95330.06;;;24.33;70.27
6615;BME280;3343;42.896;23.912;2022-09-27T04:17:33;95331.69;;;23.93;71.96
6615;BME280;3343;42.896;23.912;2022-09-27T04:20:01;95333.97;;;24.00;72.19
6615;BME280;3343;42.896;23.912;2022-09-27T04:22:29;95327.50;;;24.01;71.99
6615;BME280;3343;42.896;23.912;2022-09-27T04:24:56;95338.72;;;23.34;73.99
6615;BME280;3343;42.896;23.912;2022-09-27T04:27:22;95334.47;;;23.33;73.76
6615;BME280;3343;42.896;23.912;2022-09-27T04:29:51;95331.44;;;23.07;77.37
6615;BME280;3343;42.896;23.912;2022-09-27T04:32:18;95335.31;;;23.01;77.03
6615;BME280;3343;42.896;23.912;2022-09-27T04:34:45;95337.50;;;23.59;74.28
6615;BME280;3343;42.896;23.912;2022-09-27T04:37:29;95325.34;;;23.89;72.55
6615;BME280;3343;42.896;23.912;2022-09-27T04:39:56;95332.41;;;22.98;76.41
6615;BME280;3343;42.896;23.912;2022-09-27T04:42:23;95324.41;;;23.25;76.41
6615;BME280;3343;42.896;23.912;2022-09-27T04:44:52;95330.25;;;23.73;73.92
6615;BME280;3343;42.896;23.912;2022-09-27T04:47:19;95333.50;;;23.98;72.66
6615;BME280;3343;42.896;23.912;2022-09-27T04:49:46;95326.94;;;23.76;74.04
6615;BME280;3343;42.896;23.912;2022-09-27T04:52:14;95329.19;;;24.10;72.60
6615;BME280;3343;42.896;23.912;2022-09-27T04:54:41;95351.91;;;23.91;73.42
6615;BME280;3343;42.896;23.912;2022-09-27T04:57:08;95346.72;;;23.94;73.25
6615;BME280;3343;42.896;23.912;2022-09-27T04:59:36;95335.72;;;23.68;74.72
6615;BME280;3343;42.896;23.912;2022-09-27T05:02:06;95342.81;;;24.14;73.07
6615;BME280;3343;42.896;23.912;2022-09-27T05:04:33;95350.78;;;24.05;71.65
6615;BME280;3343;42.896;23.912;2022-09-27T05:07:00;95358.16;;;24.00;72.82
6615;BME280;3343;42.896;23.912;2022-09-27T05:09:27;95365.06;;;23.65;74.13
6615;BME280;3343;42.896;23.912;2022-09-27T05:11:54;95367.41;;;23.52;75.00
6615;BME280;3343;42.896;23.912;2022-09-27T05:14:21;95354.22;;;23.70;74.35
6615;BME280;3343;42.896;23.912;2022-09-27T05:16:48;95358.63;;;24.15;72.46
6615;BME280;3343;42.896;23.912;2022-09-27T05:19:16;95368.03;;;24.54;70.98
6615;BME280;3343;42.896;23.912;2022-09-27T05:21:43;95367.03;;;24.28;71.93
6615;BME280;3343;42.896;23.912;2022-09-27T05:24:10;95362.72;;;24.40;71.22
6615;BME280;3343;42.896;23.912;2022-09-27T05:26:37;95357.97;;;23.96;73.10
6615;BME280;3343;42.896;23.912;2022-09-27T05:29:04;95363.94;;;23.93;72.97
6615;BME280;3343;42.896;23.912;2022-09-27T05:31:31;95353.59;;;24.00;72.87
6615;BME280;3343;42.896;23.912;2022-09-27T05:33:58;95348.59;;;24.07;72.83
6615;BME280;3343;42.896;23.912;2022-09-27T05:36:26;95337.84;;;24.07;73.42
6615;BME280;3343;42.896;23.912;2022-09-27T05:38:53;95346.16;;;23.70;74.24
6615;BME280;3343;42.896;23.912;2022-09-27T05:41:20;95348.72;;;23.89;73.00
6615;BME280;3343;42.896;23.912;2022-09-27T05:43:46;95329.88;;;23.34;75.65
6615;BME280;3343;42.896;23.912;2022-09-27T05:46:13;95332.72;;;23.83;74.65
6615;BME280;3343;42.896;23.912;2022-09-27T05:48:40;95330.47;;;24.27;72.25
6615;BME280;3343;42.896;23.912;2022-09-27T05:51:07;95330.94;;;24.65;70.29
6615;BME280;3343;42.896;23.912;2022-09-27T05:53:35;95329.28;;;24.55;71.53
6615;BME280;3343;42.896;23.912;2022-09-27T05:56:03;95321.59;;;24.62;71.60
6615;BME280;3343;42.896;23.912;2022-09-27T05:58:30;95312.16;;;24.96;69.73
6615;BME280;3343;42.896;23.912;2022-09-27T06:00:57;95322.91;;;24.29;72.74
6615;BME280;3343;42.896;23.912;2022-09-27T06:03:24;95326.66;;;24.64;71.68
6615;BME280;3343;42.896;23.912;2022-09-27T06:05:51;95325.59;;;24.96;71.08
6615;BME280;3343;42.896;23.912;2022-09-27T06:08:18;95332.41;;;25.16;71.45
6615;BME280;3343;42.896;23.912;2022-09-27T06:10:47;95330.38;;;25.61;69.03
6615;BME280;3343;42.896;23.912;2022-09-27T06:13:15;95333.66;;;25.89;67.80
6615;BME280;3343;42.896;23.912;2022-09-27T06:15:43;95320.97;;;25.81;66.14
6615;BME280;3343;42.896;23.912;2022-09-27T06:18:12;95322.84;;;25.09;70.64
6615;BME280;3343;42.896;23.912;2022-09-27T06:20:41;95320.91;;;24.57;74.50
6615;BME280;3343;42.896;23.912;2022-09-27T06:23:09;95307.53;;;25.50;70.81
6615;BME280;3343;42.896;23.912;2022-09-27T06:25:37;95319.94;;;25.20;72.10
6615;BME280;3343;42.896;23.912;2022-09-27T06:28:06;95295.50;;;25.56;70.58
6615;BME280;3343;42.896;23.912;2022-09-27T06:30:37;95304.78;;;25.72;69.52
6615;BME280;3343;42.896;23.912;2022-09-27T06:33:04;95322.66;;;25.28;71.77
6615;BME280;3343;42.896;23.912;2022-09-27T06:35:33;95313.69;;;25.11;72.49
6615;BME280;3343;42.896;23.912;2022-09-27T06:38:02;95320.53;;;25.17;73.18
6615;BME280;3343;42.896;23.912;2022-09-27T06:40:29;95315.34;;;24.98;71.64
6615;BME280;3343;42.896;23.912;2022-09-27T06:43:01;95304.34;;;24.86;70.65
6615;BME280;3343;42.896;23.912;2022-09-27T06:45:29;95297.19;;;25.91;66.24
6615;BME280;3343;42.896;23.912;2022-09-27T06:47:57;95302.25;;;25.36;69.14
6615;BME280;3343;42.896;23.912;2022-09-27T06:50:27;95293.59;;;25.48;66.94
6615;BME280;3343;42.896;23.912;2022-09-27T06:52:54;95309.00;;;25.64;66.29
6615;BME280;3343;42.896;23.912;2022-09-27T06:55:21;95305.03;;;26.19;64.61
6615;BME280;3343;42.896;23.912;2022-09-27T06:57:48;95293.72;;;25.99;64.80
6615;BME280;3343;42.896;23.912;2022-09-27T07:00:34;95287.69;;;25.85;66.01
6615;BME280;3343;42.896;23.912;2022-09-27T07:03:01;95280.28;;;26.17;66.08
6615;BME280;3343;42.896;23.912;2022-09-27T07:05:28;95285.84;;;26.55;61.30
6615;BME280;3343;42.896;23.912;2022-09-27T07:07:55;95292.34;;;26.28;63.69
6615;BME280;3343;42.896;23.912;2022-09-27T07:10:23;95289.59;;;26.97;60.22
6615;BME280;3343;42.896;23.912;2022-09-27T07:12:51;95278.81;;;25.93;61.59
6615;BME280;3343;42.896;23.912;2022-09-27T07:15:18;95271.56;;;26.02;60.45
6615;BME280;3343;42.896;23.912;2022-09-27T07:17:55;95271.22;;;26.73;57.34
6615;BME280;3343;42.896;23.912;2022-09-27T07:20:22;95271.56;;;26.46;57.33
6615;BME280;3343;42.896;23.912;2022-09-27T07:22:49;95274.25;;;26.28;57.27
6615;BME280;3343;42.896;23.912;2022-09-27T07:25:16;95285.03;;;26.02;58.69
6615;BME280;3343;42.896;23.912;2022-09-27T07:27:43;95266.16;;;26.02;57.98
6615;BME280;3343;42.896;23.912;2022-09-27T07:30:11;95294.22;;;26.79;58.10
6615;BME280;3343;42.896;23.912;2022-09-27T07:32:38;95294.72;;;26.12;59.49
6615;BME280;3343;42.896;23.912;2022-09-27T07:35:08;95290.72;;;27.05;53.38
6615;BME280;3343;42.896;23.912;2022-09-27T07:37:36;95285.44;;;27.55;53.80
6615;BME280;3343;42.896;23.912;2022-09-27T07:40:06;95297.72;;;26.71;61.28
6615;BME280;3343;42.896;23.912;2022-09-27T07:42:34;95323.44;;;27.50;60.10
6615;BME280;3343;42.896;23.912;2022-09-27T07:45:02;95321.19;;;28.19;58.52
6615;BME280;3343;42.896;23.912;2022-09-27T07:47:30;95322.44;;;28.01;60.43
6615;BME280;3343;42.896;23.912;2022-09-27T07:49:56;95332.78;;;27.23;63.98
6615;BME280;3343;42.896;23.912;2022-09-27T07:52:25;95335.53;;;28.20;62.27
6615;BME280;3343;42.896;23.912;2022-09-27T07:54:52;95327.97;;;28.34;60.65
6615;BME280;3343;42.896;23.912;2022-09-27T07:57:22;95339.44;;;28.52;59.91
6615;BME280;3343;42.896;23.912;2022-09-27T07:59:49;95344.34;;;28.59;60.22
6615;BME280;3343;42.896;23.912;2022-09-27T08:02:16;95344.28;;;28.67;59.78
6615;BME280;3343;42.896;23.912;2022-09-27T08:04:43;95319.00;;;27.07;65.63
6615;BME280;3343;42.896;23.912;2022-09-27T08:07:11;95326.28;;;26.81;66.74
6615;BME280;3343;42.896;23.912;2022-09-27T08:09:40;95320.59;;;26.91;65.44
6615;BME280;3343;42.896;23.912;2022-09-27T08:12:07;95336.44;;;26.15;69.25
6615;BME280;3343;42.896;23.912;2022-09-27T08:14:35;95333.25;;;26.13;70.14
6615;BME280;3343;42.896;23.912;2022-09-27T08:17:02;95316.28;;;27.16;65.48
6615;BME280;3343;42.896;23.912;2022-09-27T08:19:28;95325.50;;;26.89;66.41
6615;BME280;3343;42.896;23.912;2022-09-27T08:21:55;95319.78;;;26.82;66.79
6615;BME280;3343;42.896;23.912;2022-09-27T08:24:22;95332.97;;;27.56;62.73
6615;BME280;3343;42.896;23.912;2022-09-27T08:26:50;95331.06;;;27.56;64.17
6615;BME280;3343;42.896;23.912;2022-09-27T08:29:17;95306.47;;;27.41;64.83
6615;BME280;3343;42.896;23.912;2022-09-27T08:31:44;95292.78;;;26.82;67.73
6615;BME280;3343;42.896;23.912;2022-09-27T08:34:11;95281.44;;;27.23;67.11
6615;BME280;3343;42.896;23.912;2022-09-27T08:36:38;95292.28;;;27.61;66.26
6615;BME280;3343;42.896;23.912;2022-09-27T08:39:05;95278.31;;;27.50;65.66
6615;BME280;3343;42.896;23.912;2022-09-27T08:41:35;95279.31;;;28.05;62.93
6615;BME280;3343;42.896;23.912;2022-09-27T08:44:12;95287.28;;;28.22;62.76
6615;BME280;3343;42.896;23.912;2022-09-27T08:46:51;95303.56;;;28.64;62.21
6615;BME280;3343;42.896;23.912;2022-09-27T08:49:26;95283.38;;;28.94;61.12
6615;BME280;3343;42.896;23.912;2022-09-27T08:51:57;95295.16;;;27.47;65.39
6615;BME280;3343;42.896;23.912;2022-09-27T08:54:27;95293.91;;;26.89;69.36
6615;BME280;3343;42.896;23.912;2022-09-27T08:56:58;95301.06;;;26.77;69.68
6615;BME280;3343;42.896;23.912;2022-09-27T08:59:30;95285.84;;;26.63;72.19
6615;BME280;3343;42.896;23.912;2022-09-27T09:02:00;95256.63;;;27.29;67.26
6615;BME280;3343;42.896;23.912;2022-09-27T09:04:32;95278.44;;;27.63;65.73
6615;BME280;3343;42.896;23.912;2022-09-27T09:07:07;95270.72;;;28.03;62.55
6615;BME280;3343;42.896;23.912;2022-09-27T09:09:42;95284.44;;;27.98;63.09
6615;BME280;3343;42.896;23.912;2022-09-27T09:12:23;95288.72;;;27.31;64.80
6615;BME280;3343;42.896;23.912;2022-09-27T09:15:21;95278.78;;;27.52;59.45
6615;BME280;3343;42.896;23.912;2022-09-27T09:18:03;95281.16;;;28.54;57.12
6615;BME280;3343;42.896;23.912;2022-09-27T09:20:53;95273.97;;;28.17;59.95
6615;BME280;3343;42.896;23.912;2022-09-27T09:23:41;95286.09;;;27.90;61.13
6615;BME280;3343;42.896;23.912;2022-09-27T09:26:17;95281.72;;;28.27;58.14
6615;BME280;3343;42.896;23.912;2022-09-27T09:29:02;95282.34;;;28.66;56.88
6615;BME280;3343;42.896;23.912;2022-09-27T09:31:39;95277.75;;;29.11;55.06
6615;BME280;3343;42.896;23.912;2022-09-27T09:34:11;95275.13;;;28.91;54.33
6615;BME280;3343;42.896;23.912;2022-09-27T09:36:43;95280.28;;;29.41;55.23
6615;BME280;3343;42.896;23.912;2022-09-27T09:39:15;95288.03;;;29.51;52.91
6615;BME280;3343;42.896;23.912;2022-09-27T09:41:52;95296.81;;;29.03;55.58
6615;BME280;3343;42.896;23.912;2022-09-27T09:44:25;95289.16;;;29.62;56.94
6615;BME280;3343;42.896;23.912;2022-09-27T09:46:58;95284.72;;;29.94;57.09
6615;BME280;3343;42.896;23.912;2022-09-27T09:49:28;95279.72;;;30.21;57.35
6615;BME280;3343;42.896;23.912;2022-09-27T09:52:00;95271.81;;;30.16;51.64
6615;BME280;3343;42.896;23.912;2022-09-27T09:54:31;95278.28;;;30.11;51.04
6615;BME280;3343;42.896;23.912;2022-09-27T09:57:04;95289.47;;;30.62;48.63
6615;BME280;3343;42.896;23.912;2022-09-27T09:59:37;95289.31;;;31.42;50.04
6615;BME280;3343;42.896;23.912;2022-09-27T10:02:18;95277.88;;;31.68;47.38
6615;BME280;3343;42.896;23.912;2022-09-27T10:04:47;95269.19;;;30.71;51.60
6615;BME280;3343;42.896;23.912;2022-09-27T10:07:19;95276.25;;;29.96;53.45
6615;BME280;3343;42.896;23.912;2022-09-27T10:09:47;95273.53;;;30.08;54.70
6615;BME280;3343;42.896;23.912;2022-09-27T10:12:14;95269.59;;;30.46;53.08
6615;BME280;3343;42.896;23.912;2022-09-27T10:14:41;95270.91;;;29.99;52.82
6615;BME280;3343;42.896;23.912;2022-09-27T10:17:15;95262.78;;;30.64;53.81
6615;BME280;3343;42.896;23.912;2022-09-27T10:19:45;95262.88;;;30.55;52.06
6615;BME280;3343;42.896;23.912;2022-09-27T10:22:18;95272.25;;;30.70;49.88
6615;BME280;3343;42.896;23.912;2022-09-27T10:24:58;95254.31;;;30.81;49.46
6615;BME280;3343;42.896;23.912;2022-09-27T10:27:27;95260.19;;;30.55;52.34
6615;BME280;3343;42.896;23.912;2022-09-27T10:29:58;95254.25;;;30.37;52.43
6615;BME280;3343;42.896;23.912;2022-09-27T10:32:30;95244.66;;;30.28;55.03
6615;BME280;3343;42.896;23.912;2022-09-27T10:35:19;95245.06;;;30.02;55.35
6615;BME280;3343;42.896;23.912;2022-09-27T10:37:46;95252.44;;;29.53;60.36
6615;BME280;3343;42.896;23.912;2022-09-27T10:40:27;95245.97;;;29.82;59.76
6615;BME280;3343;42.896;23.912;2022-09-27T10:42:54;95253.69;;;28.85;61.93
6615;BME280;3343;42.896;23.912;2022-09-27T10:45:26;95245.00;;;29.50;58.89
6615;BME280;3343;42.896;23.912;2022-09-27T10:47:55;95238.97;;;29.80;59.36
6615;BME280;3343;42.896;23.912;2022-09-27T10:50:24;95236.47;;;29.88;58.70
6615;BME280;3343;42.896;23.912;2022-09-27T10:53:01;95228.41;;;30.16;57.30
6615;BME280;3343;42.896;23.912;2022-09-27T10:55:32;95238.41;;;29.87;57.00
6615;BME280;3343;42.896;23.912;2022-09-27T10:57:59;95249.97;;;28.90;61.21
6615;BME280;3343;42.896;23.912;2022-09-27T11:00:30;95244.47;;;28.66;59.01
6615;BME280;3343;42.896;23.912;2022-09-27T11:03:01;95234.88;;;29.01;59.12
6615;BME280;3343;42.896;23.912;2022-09-27T11:05:33;95240.75;;;29.15;56.43
6615;BME280;3343;42.896;23.912;2022-09-27T11:08:01;95239.22;;;30.28;55.60
6615;BME280;3343;42.896;23.912;2022-09-27T11:11:00;95242.19;;;30.63;50.67
6615;BME280;3343;42.896;23.912;2022-09-27T11:13:28;95245.97;;;30.74;50.51
6615;BME280;3343;42.896;23.912;2022-09-27T11:19:15;95231.28;;;32.59;45.65
6615;BME280;3343;42.896;23.912;2022-09-27T11:21:53;95245.50;;;33.56;42.60
6615;BME280;3343;42.896;23.912;2022-09-27T11:24:39;95251.22;;;33.74;40.02
6615;BME280;3343;42.896;23.912;2022-09-27T11:27:18;95241.22;;;34.34;38.79
6615;BME280;3343;42.896;23.912;2022-09-27T11:30:01;95249.75;;;33.80;38.12
6615;BME280;3343;42.896;23.912;2022-09-27T11:32:39;95227.94;;;33.08;43.64
6615;BME280;3343;42.896;23.912;2022-09-27T11:35:32;95216.38;;;31.79;44.94
6615;BME280;3343;42.896;23.912;2022-09-27T11:38:12;95217.25;;;31.83;47.88
6615;BME280;3343;42.896;23.912;2022-09-27T11:40:54;95226.22;;;32.03;47.25
6615;BME280;3343;42.896;23.912;2022-09-27T11:43:41;95230.66;;;31.92;48.40
6615;BME280;3343;42.896;23.912;2022-09-27T11:46:18;95232.63;;;31.60;49.10
6615;BME280;3343;42.896;23.912;2022-09-27T11:49:01;95223.56;;;32.42;45.67
6615;BME280;3343;42.896;23.912;2022-09-27T11:51:56;95217.84;;;32.47;45.07
6615;BME280;3343;42.896;23.912;2022-09-27T11:54:38;95215.50;;;32.10;44.24
6615;BME280;3343;42.896;23.912;2022-09-27T11:57:14;95219.25;;;32.41;44.21
6615;BME280;3343;42.896;23.912;2022-09-27T12:00:14;95221.34;;;32.47;43.23
6615;BME280;3343;42.896;23.912;2022-09-27T12:03:05;95224.97;;;32.74;41.66
6615;BME280;3343;42.896;23.912;2022-09-27T12:05:44;95225.53;;;32.83;43.01
6615;BME280;3343;42.896;23.912;2022-09-27T12:08:27;95211.50;;;32.62;43.78
6615;BME280;3343;42.896;23.912;2022-09-27T12:11:02;95204.38;;;31.64;44.87
6615;BME280;3343;42.896;23.912;2022-09-27T12:13:33;95207.47;;;31.47;46.69
6615;BME280;3343;42.896;23.912;2022-09-27T12:16:03;95193.75;;;32.10;44.85
6615;BME280;3343;42.896;23.912;2022-09-27T12:18:34;95192.44;;;32.81;43.08
6615;BME280;3343;42.896;23.912;2022-09-27T12:21:04;95194.94;;;33.13;41.05
6615;BME280;3343;42.896;23.912;2022-09-27T12:23:38;95185.06;;;33.80;39.74
6615;BME280;3343;42.896;23.912;2022-09-27T12:26:10;95187.47;;;33.82;39.48
6615;BME280;3343;42.896;23.912;2022-09-27T12:28:44;95191.16;;;33.70;39.25
6615;BME280;3343;42.896;23.912;2022-09-27T12:31:16;95180.28;;;33.74;39.32
6615;BME280;3343;42.896;23.912;2022-09-27T12:33:50;95178.59;;;33.89;37.84
6615;BME280;3343;42.896;23.912;2022-09-27T12:36:24;95163.38;;;33.35;38.36
6615;BME280;3343;42.896;23.912;2022-09-27T12:39:01;95145.59;;;33.44;39.19
6615;BME280;3343;42.896;23.912;2022-09-27T12:41:35;95144.72;;;33.14;39.44
6615;BME280;3343;42.896;23.912;2022-09-27T12:44:04;95138.47;;;32.90;39.33
6615;BME280;3343;42.896;23.912;2022-09-27T12:46:38;95124.41;;;33.34;40.82
6615;BME280;3343;42.896;23.912;2022-09-27T12:49:13;95118.19;;;32.88;41.68
6615;BME280;3343;42.896;23.912;2022-09-27T12:51:47;95114.81;;;32.29;41.79
6615;BME280;3343;42.896;23.912;2022-09-27T12:54:42;95122.63;;;32.96;42.09
6615;BME280;3343;42.896;23.912;2022-09-27T12:57:26;95107.81;;;32.28;40.93
6615;BME280;3343;42.896;23.912;2022-09-27T13:00:06;95111.81;;;32.35;41.86
6615;BME280;3343;42.896;23.912;2022-09-27T13:06:10;95102.41;;;33.23;40.22
6615;BME280;3343;42.896;23.912;2022-09-27T13:09:02;95101.78;;;31.46;45.26
6615;BME280;3343;42.896;23.912;2022-09-27T13:11:46;95094.69;;;31.76;44.44
6615;BME280;3343;42.896;23.912;2022-09-27T13:14:20;95085.94;;;31.86;44.48
6615;BME280;3343;42.896;23.912;2022-09-27T13:16:49;95095.94;;;32.40;43.77
6615;BME280;3343;42.896;23.912;2022-09-27T13:19:40;95102.13;;;33.59;42.28
6615;BME280;3343;42.896;23.912;2022-09-27T13:22:08;95092.97;;;33.74;39.71
6615;BME280;3343;42.896;23.912;2022-09-27T13:24:43;95090.31;;;34.07;38.76
6615;BME280;3343;42.896;23.912;2022-09-27T13:27:38;95084.44;;;33.75;39.05
6615;BME280;3343;42.896;23.912;2022-09-27T13:33:46;95075.69;;;33.33;40.25
6615;BME280;3343;42.896;23.912;2022-09-27T13:36:30;95065.16;;;32.59;42.42
6615;BME280;3343;42.896;23.912;2022-09-27T13:39:04;95057.66;;;32.52;42.82
6615;BME280;3343;42.896;23.912;2022-09-27T13:42:00;95077.56;;;31.95;45.47
6615;BME280;3343;42.896;23.912;2022-09-27T13:44:49;95075.41;;;31.65;46.35
6615;BME280;3343;42.896;23.912;2022-09-27T13:47:25;95097.19;;;31.30;47.67
6615;BME280;3343;42.896;23.912;2022-09-27T13:50:03;95196.69;;;31.35;48.46